sensor_id;sensor_type;location;lat;lon;timestamp;temperature;humidity
53314;DHT22;39202;51.468;7.146;2023-02-23T00:03:17;23.00;44.40
53314;DHT22;39202;51.468;7.146;2023-02-23T00:08:19;23.00;43.80
53314;DHT22;39202;51.468;7.146;2023-02-23T00:13:24;23.00;43.80
53314;DHT22;39202;51.468;7.146;2023-02-23T00:18:26;23.00;43.90
53314;DHT22;39202;51.468;7.146;2023-02-23T00:23:29;23.00;43.80
53314;DHT22;39202;51.468;7.146;2023-02-23T00:28:32;22.90;43.80
53314;DHT22;39202;51.468;7.146;2023-02-23T00:33:34;22.90;43.80
53314;DHT22;39202;51.468;7.146;2023-02-23T00:38:36;22.90;43.80
53314;DHT22;39202;51.468;7.146;2023-02-23T00:43:41;23.00;43.90
53314;DHT22;39202;51.468;7.146;2023-02-23T00:48:48;22.90;43.90
53314;DHT22;39202;51.468;7.146;2023-02-23T00:53:53;22.90;43.80
53314;DHT22;39202;51.468;7.146;2023-02-23T00:58:56;22.90;43.90
53314;DHT22;39202;51.468;7.146;2023-02-23T01:03:58;22.90;43.90
53314;DHT22;39202;51.468;7.146;2023-02-23T01:09:05;22.90;43.90
53314;DHT22;39202;51.468;7.146;2023-02-23T01:14:10;22.90;43.90
53314;DHT22;39202;51.468;7.146;2023-02-23T01:19:12;22.90;43.90
53314;DHT22;39202;51.468;7.146;2023-02-23T01:24:13;22.80;43.90
53314;DHT22;39202;51.468;7.146;2023-02-23T01:29:17;22.80;43.80
53314;DHT22;39202;51.468;7.146;2023-02-23T01:34:19;22.80;43.90
53314;DHT22;39202;51.468;7.146;2023-02-23T01:39:22;22.80;43.90
53314;DHT22;39202;51.468;7.146;2023-02-23T01:50:12;22.80;44.00
53314;DHT22;39202;51.468;7.146;2023-02-23T01:55:16;23.20;44.10
53314;DHT22;39202;51.468;7.146;2023-02-23T02:00:25;22.80;44.00
53314;DHT22;39202;51.468;7.146;2023-02-23T02:05:29;22.80;44.00
53314;DHT22;39202;51.468;7.146;2023-02-23T02:10:31;22.70;43.90
53314;DHT22;39202;51.468;7.146;2023-02-23T02:16:13;22.70;43.90
53314;DHT22;39202;51.468;7.146;2023-02-23T02:21:54;22.70;44.00
53314;DHT22;39202;51.468;7.146;2023-02-23T02:27:11;22.70;43.90
53314;DHT22;39202;51.468;7.146;2023-02-23T02:32:57;22.70;44.00
53314;DHT22;39202;51.468;7.146;2023-02-23T02:38:10;22.70;44.00
53314;DHT22;39202;51.468;7.146;2023-02-23T02:43:22;22.70;44.00
53314;DHT22;39202;51.468;7.146;2023-02-23T02:48:32;22.70;44.00
53314;DHT22;39202;51.468;7.146;2023-02-23T02:53:44;22.70;44.00
53314;DHT22;39202;51.468;7.146;2023-02-23T02:58:48;22.60;43.90
53314;DHT22;39202;51.468;7.146;2023-02-23T03:03:50;22.60;43.90
53314;DHT22;39202;51.468;7.146;2023-02-23T03:09:23;22.60;43.90
53314;DHT22;39202;51.468;7.146;2023-02-23T03:14:50;22.60;43.90
53314;DHT22;39202;51.468;7.146;2023-02-23T03:20:16;22.60;43.90
53314;DHT22;39202;51.468;7.146;2023-02-23T03:25:47;22.60;44.00
53314;DHT22;39202;51.468;7.146;2023-02-23T03:31:13;22.60;44.00
53314;DHT22;39202;51.468;7.146;2023-02-23T03:36:36;22.50;44.00
53314;DHT22;39202;51.468;7.146;2023-02-23T03:42:01;22.50;44.00
53314;DHT22;39202;51.468;7.146;2023-02-23T03:47:25;22.50;44.00
53314;DHT22;39202;51.468;7.146;2023-02-23T03:52:50;22.50;44.00
53314;DHT22;39202;51.468;7.146;2023-02-23T03:58:16;22.50;44.00
53314;DHT22;39202;51.468;7.146;2023-02-23T04:03:39;22.50;44.00
53314;DHT22;39202;51.468;7.146;2023-02-23T04:09:03;22.50;44.00
53314;DHT22;39202;51.468;7.146;2023-02-23T04:14:28;22.50;44.00
53314;DHT22;39202;51.468;7.146;2023-02-23T04:19:31;22.50;44.00
53314;DHT22;39202;51.468;7.146;2023-02-23T04:24:32;22.50;44.00
53314;DHT22;39202;51.468;7.146;2023-02-23T04:29:35;22.50;44.00
53314;DHT22;39202;51.468;7.146;2023-02-23T04:34:37;22.50;44.00
53314;DHT22;39202;51.468;7.146;2023-02-23T04:39:39;22.50;44.00
53314;DHT22;39202;51.468;7.146;2023-02-23T04:44:43;22.50;44.00
53314;DHT22;39202;51.468;7.146;2023-02-23T04:49:45;22.50;44.00
53314;DHT22;39202;51.468;7.146;2023-02-23T04:54:47;22.50;44.00
53314;DHT22;39202;51.468;7.146;2023-02-23T04:59:50;22.40;44.00
53314;DHT22;39202;51.468;7.146;2023-02-23T05:04:51;22.50;44.00
53314;DHT22;39202;51.468;7.146;2023-02-23T05:09:53;22.50;44.00
53314;DHT22;39202;51.468;7.146;2023-02-23T05:14:56;22.50;44.00
53314;DHT22;39202;51.468;7.146;2023-02-23T05:19:58;22.50;43.90
53314;DHT22;39202;51.468;7.146;2023-02-23T05:25:00;22.50;43.90
53314;DHT22;39202;51.468;7.146;2023-02-23T05:30:06;22.50;43.90
53314;DHT22;39202;51.468;7.146;2023-02-23T05:35:09;22.50;43.90
53314;DHT22;39202;51.468;7.146;2023-02-23T05:40:12;22.50;43.90
53314;DHT22;39202;51.468;7.146;2023-02-23T05:45:15;22.40;44.50
53314;DHT22;39202;51.468;7.146;2023-02-23T05:50:17;22.40;43.90
53314;DHT22;39202;51.468;7.146;2023-02-23T05:55:19;22.50;43.90
53314;DHT22;39202;51.468;7.146;2023-02-23T06:00:22;22.40;43.90
53314;DHT22;39202;51.468;7.146;2023-02-23T06:05:24;22.40;44.00
53314;DHT22;39202;51.468;7.146;2023-02-23T06:10:26;22.40;44.00
53314;DHT22;39202;51.468;7.146;2023-02-23T06:15:29;22.40;44.00
53314;DHT22;39202;51.468;7.146;2023-02-23T06:20:30;22.40;44.00
53314;DHT22;39202;51.468;7.146;2023-02-23T06:25:32;22.40;44.00
53314;DHT22;39202;51.468;7.146;2023-02-23T06:30:36;22.40;44.00
53314;DHT22;39202;51.468;7.146;2023-02-23T06:35:38;22.40;44.00
53314;DHT22;39202;51.468;7.146;2023-02-23T06:40:39;22.40;44.00
53314;DHT22;39202;51.468;7.146;2023-02-23T06:45:45;22.30;44.00
53314;DHT22;39202;51.468;7.146;2023-02-23T06:50:46;22.30;44.00
53314;DHT22;39202;51.468;7.146;2023-02-23T06:55:48;22.30;44.00
53314;DHT22;39202;51.468;7.146;2023-02-23T07:00:53;22.30;44.00
53314;DHT22;39202;51.468;7.146;2023-02-23T07:05:56;22.30;44.10
53314;DHT22;39202;51.468;7.146;2023-02-23T07:11:04;22.30;44.10
53314;DHT22;39202;51.468;7.146;2023-02-23T07:16:08;22.30;44.30
53314;DHT22;39202;51.468;7.146;2023-02-23T07:21:10;22.30;44.20
53314;DHT22;39202;51.468;7.146;2023-02-23T07:26:12;22.30;44.20
53314;DHT22;39202;51.468;7.146;2023-02-23T07:31:16;22.40;44.30
53314;DHT22;39202;51.468;7.146;2023-02-23T07:36:18;22.40;44.30
53314;DHT22;39202;51.468;7.146;2023-02-23T07:41:20;22.40;44.30
53314;DHT22;39202;51.468;7.146;2023-02-23T07:46:23;22.50;44.50
53314;DHT22;39202;51.468;7.146;2023-02-23T07:51:25;22.50;44.50
53314;DHT22;39202;51.468;7.146;2023-02-23T07:56:27;22.60;44.60
53314;DHT22;39202;51.468;7.146;2023-02-23T08:01:30;22.70;44.50
53314;DHT22;39202;51.468;7.146;2023-02-23T08:06:31;22.80;44.50
53314;DHT22;39202;51.468;7.146;2023-02-23T08:11:33;22.90;44.50
53314;DHT22;39202;51.468;7.146;2023-02-23T08:16:36;22.90;44.50
53314;DHT22;39202;51.468;7.146;2023-02-23T08:21:38;23.00;44.40
53314;DHT22;39202;51.468;7.146;2023-02-23T08:26:40;23.10;44.30
53314;DHT22;39202;51.468;7.146;2023-02-23T08:31:43;23.20;44.30
53314;DHT22;39202;51.468;7.146;2023-02-23T08:36:45;23.20;44.30
53314;DHT22;39202;51.468;7.146;2023-02-23T08:41:47;23.30;44.30
53314;DHT22;39202;51.468;7.146;2023-02-23T08:46:50;23.30;44.20
53314;DHT22;39202;51.468;7.146;2023-02-23T08:51:53;23.30;44.20
53314;DHT22;39202;51.468;7.146;2023-02-23T08:56:55;23.40;44.20
53314;DHT22;39202;51.468;7.146;2023-02-23T09:01:59;23.40;44.30
53314;DHT22;39202;51.468;7.146;2023-02-23T09:07:01;23.50;44.30
53314;DHT22;39202;51.468;7.146;2023-02-23T09:12:03;23.50;44.20
53314;DHT22;39202;51.468;7.146;2023-02-23T09:17:06;23.60;44.30
53314;DHT22;39202;51.468;7.146;2023-02-23T09:22:07;23.60;44.20
53314;DHT22;39202;51.468;7.146;2023-02-23T09:27:09;23.70;44.10
53314;DHT22;39202;51.468;7.146;2023-02-23T09:32:13;23.80;44.20
53314;DHT22;39202;51.468;7.146;2023-02-23T09:37:15;23.80;44.10
53314;DHT22;39202;51.468;7.146;2023-02-23T09:42:28;23.80;44.10
53314;DHT22;39202;51.468;7.146;2023-02-23T09:47:48;23.90;44.00
53314;DHT22;39202;51.468;7.146;2023-02-23T09:52:55;23.90;44.00
53314;DHT22;39202;51.468;7.146;2023-02-23T09:58:07;23.90;43.90
53314;DHT22;39202;51.468;7.146;2023-02-23T10:03:22;24.00;44.00
53314;DHT22;39202;51.468;7.146;2023-02-23T10:08:41;24.00;43.90
53314;DHT22;39202;51.468;7.146;2023-02-23T10:13:53;24.10;44.40
53314;DHT22;39202;51.468;7.146;2023-02-23T10:19:04;24.10;43.80
53314;DHT22;39202;51.468;7.146;2023-02-23T10:24:11;24.10;43.70
53314;DHT22;39202;51.468;7.146;2023-02-23T10:29:20;24.10;44.40
53314;DHT22;39202;51.468;7.146;2023-02-23T10:34:26;24.10;43.80
53314;DHT22;39202;51.468;7.146;2023-02-23T10:39:28;24.10;43.80
53314;DHT22;39202;51.468;7.146;2023-02-23T10:44:31;24.10;43.90
53314;DHT22;39202;51.468;7.146;2023-02-23T10:49:42;24.10;43.90
53314;DHT22;39202;51.468;7.146;2023-02-23T10:54:45;24.20;43.90
53314;DHT22;39202;51.468;7.146;2023-02-23T11:00:23;24.20;43.90
53314;DHT22;39202;51.468;7.146;2023-02-23T11:05:36;24.30;43.90
53314;DHT22;39202;51.468;7.146;2023-02-23T11:10:54;24.30;43.80
53314;DHT22;39202;51.468;7.146;2023-02-23T11:16:01;24.30;43.70
53314;DHT22;39202;51.468;7.146;2023-02-23T11:21:10;24.30;43.60
53314;DHT22;39202;51.468;7.146;2023-02-23T11:26:27;24.40;43.50
53314;DHT22;39202;51.468;7.146;2023-02-23T11:31:32;24.40;43.50
53314;DHT22;39202;51.468;7.146;2023-02-23T11:36:36;24.40;43.50
53314;DHT22;39202;51.468;7.146;2023-02-23T11:41:38;24.30;43.40
53314;DHT22;39202;51.468;7.146;2023-02-23T11:46:41;24.30;43.50
53314;DHT22;39202;51.468;7.146;2023-02-23T11:51:47;24.30;43.50
53314;DHT22;39202;51.468;7.146;2023-02-23T11:56:50;24.30;43.50
53314;DHT22;39202;51.468;7.146;2023-02-23T12:02:00;24.30;43.60
53314;DHT22;39202;51.468;7.146;2023-02-23T12:07:25;24.30;43.60
53314;DHT22;39202;51.468;7.146;2023-02-23T12:12:43;24.30;43.60
53314;DHT22;39202;51.468;7.146;2023-02-23T12:17:50;24.40;43.60
53314;DHT22;39202;51.468;7.146;2023-02-23T12:22:57;24.40;43.60
53314;DHT22;39202;51.468;7.146;2023-02-23T12:28:03;24.40;43.50
53314;DHT22;39202;51.468;7.146;2023-02-23T12:33:10;24.50;43.50
53314;DHT22;39202;51.468;7.146;2023-02-23T12:38:20;24.50;43.40
53314;DHT22;39202;51.468;7.146;2023-02-23T12:43:34;24.50;43.40
53314;DHT22;39202;51.468;7.146;2023-02-23T12:48:43;24.50;43.40
53314;DHT22;39202;51.468;7.146;2023-02-23T12:53:48;24.50;43.40
53314;DHT22;39202;51.468;7.146;2023-02-23T12:59:03;24.40;43.40
53314;DHT22;39202;51.468;7.146;2023-02-23T13:04:17;24.40;43.30
53314;DHT22;39202;51.468;7.146;2023-02-23T13:09:39;24.40;43.40
53314;DHT22;39202;51.468;7.146;2023-02-23T13:14:49;24.40;43.40
53314;DHT22;39202;51.468;7.146;2023-02-23T13:19:55;24.40;43.40
53314;DHT22;39202;51.468;7.146;2023-02-23T13:25:02;24.40;43.40
53314;DHT22;39202;51.468;7.146;2023-02-23T13:30:09;24.40;43.40
53314;DHT22;39202;51.468;7.146;2023-02-23T13:35:13;24.40;43.40
53314;DHT22;39202;51.468;7.146;2023-02-23T13:40:23;24.40;43.30
53314;DHT22;39202;51.468;7.146;2023-02-23T13:45:39;24.40;43.20
53314;DHT22;39202;51.468;7.146;2023-02-23T13:50:48;24.50;43.30
53314;DHT22;39202;51.468;7.146;2023-02-23T13:55:52;24.50;43.20
53314;DHT22;39202;51.468;7.146;2023-02-23T14:01:09;24.40;43.20
53314;DHT22;39202;51.468;7.146;2023-02-23T14:06:16;24.40;43.30
53314;DHT22;39202;51.468;7.146;2023-02-23T14:11:42;24.40;43.30
53314;DHT22;39202;51.468;7.146;2023-02-23T14:17:08;24.40;43.30
53314;DHT22;39202;51.468;7.146;2023-02-23T14:22:13;24.30;43.20
53314;DHT22;39202;51.468;7.146;2023-02-23T14:27:20;24.30;43.30
53314;DHT22;39202;51.468;7.146;2023-02-23T14:32:28;24.30;43.30
53314;DHT22;39202;51.468;7.146;2023-02-23T14:37:34;24.30;43.30
53314;DHT22;39202;51.468;7.146;2023-02-23T14:42:38;24.40;43.40
53314;DHT22;39202;51.468;7.146;2023-02-23T14:47:43;24.30;43.40
53314;DHT22;39202;51.468;7.146;2023-02-23T14:52:46;24.40;43.40
53314;DHT22;39202;51.468;7.146;2023-02-23T14:57:50;24.30;43.30
53314;DHT22;39202;51.468;7.146;2023-02-23T15:02:58;24.30;43.30
53314;DHT22;39202;51.468;7.146;2023-02-23T15:08:02;24.30;43.30
53314;DHT22;39202;51.468;7.146;2023-02-23T15:13:12;24.40;43.40
53314;DHT22;39202;51.468;7.146;2023-02-23T15:24:14;24.40;43.30
53314;DHT22;39202;51.468;7.146;2023-02-23T15:29:23;24.40;43.20
53314;DHT22;39202;51.468;7.146;2023-02-23T15:34:27;24.40;43.20
53314;DHT22;39202;51.468;7.146;2023-02-23T15:39:34;24.40;43.20
53314;DHT22;39202;51.468;7.146;2023-02-23T15:44:39;24.40;43.20
53314;DHT22;39202;51.468;7.146;2023-02-23T15:49:42;24.40;43.20
53314;DHT22;39202;51.468;7.146;2023-02-23T15:54:48;24.40;43.20
53314;DHT22;39202;51.468;7.146;2023-02-23T15:59:56;24.50;43.30
53314;DHT22;39202;51.468;7.146;2023-02-23T16:05:09;24.30;43.20
53314;DHT22;39202;51.468;7.146;2023-02-23T16:10:20;24.30;43.20
53314;DHT22;39202;51.468;7.146;2023-02-23T16:15:25;24.30;43.20
53314;DHT22;39202;51.468;7.146;2023-02-23T16:20:32;24.30;43.20
53314;DHT22;39202;51.468;7.146;2023-02-23T16:25:36;24.30;43.20
53314;DHT22;39202;51.468;7.146;2023-02-23T16:30:41;24.30;43.20
53314;DHT22;39202;51.468;7.146;2023-02-23T16:35:45;24.40;43.20
53314;DHT22;39202;51.468;7.146;2023-02-23T16:40:47;24.30;43.20
53314;DHT22;39202;51.468;7.146;2023-02-23T16:45:50;24.20;43.10
53314;DHT22;39202;51.468;7.146;2023-02-23T16:50:52;24.20;43.10
53314;DHT22;39202;51.468;7.146;2023-02-23T16:55:55;24.20;43.10
53314;DHT22;39202;51.468;7.146;2023-02-23T17:01:01;24.20;43.10
53314;DHT22;39202;51.468;7.146;2023-02-23T17:06:04;24.20;43.10
53314;DHT22;39202;51.468;7.146;2023-02-23T17:11:07;24.10;43.00
53314;DHT22;39202;51.468;7.146;2023-02-23T17:16:11;24.10;43.10
53314;DHT22;39202;51.468;7.146;2023-02-23T17:21:14;24.10;43.10
53314;DHT22;39202;51.468;7.146;2023-02-23T17:26:23;24.10;43.10
53314;DHT22;39202;51.468;7.146;2023-02-23T17:31:26;24.00;43.10
53314;DHT22;39202;51.468;7.146;2023-02-23T17:36:28;24.00;43.10
53314;DHT22;39202;51.468;7.146;2023-02-23T17:41:30;23.90;43.10
53314;DHT22;39202;51.468;7.146;2023-02-23T17:46:35;23.90;43.10
53314;DHT22;39202;51.468;7.146;2023-02-23T17:51:37;23.90;43.10
53314;DHT22;39202;51.468;7.146;2023-02-23T17:56:39;23.90;43.20
53314;DHT22;39202;51.468;7.146;2023-02-23T18:01:42;23.80;43.10
53314;DHT22;39202;51.468;7.146;2023-02-23T18:06:43;23.80;43.20
53314;DHT22;39202;51.468;7.146;2023-02-23T18:11:45;23.80;43.20
53314;DHT22;39202;51.468;7.146;2023-02-23T18:16:48;23.70;43.20
53314;DHT22;39202;51.468;7.146;2023-02-23T18:21:50;23.70;43.20
53314;DHT22;39202;51.468;7.146;2023-02-23T18:26:54;23.70;43.80
53314;DHT22;39202;51.468;7.146;2023-02-23T18:32:03;23.70;43.10
53314;DHT22;39202;51.468;7.146;2023-02-23T18:37:05;23.70;43.20
53314;DHT22;39202;51.468;7.146;2023-02-23T18:42:09;23.70;43.20
53314;DHT22;39202;51.468;7.146;2023-02-23T18:47:12;23.60;43.20
53314;DHT22;39202;51.468;7.146;2023-02-23T18:52:14;23.60;43.20
53314;DHT22;39202;51.468;7.146;2023-02-23T18:57:15;23.60;43.20
53314;DHT22;39202;51.468;7.146;2023-02-23T19:02:18;23.50;43.20
53314;DHT22;39202;51.468;7.146;2023-02-23T19:07:23;23.50;43.30
53314;DHT22;39202;51.468;7.146;2023-02-23T19:12:25;23.50;43.30
53314;DHT22;39202;51.468;7.146;2023-02-23T19:17:28;23.50;43.30
53314;DHT22;39202;51.468;7.146;2023-02-23T19:22:30;23.40;43.30
53314;DHT22;39202;51.468;7.146;2023-02-23T19:27:32;23.40;43.90
53314;DHT22;39202;51.468;7.146;2023-02-23T19:32:36;23.40;43.30
53314;DHT22;39202;51.468;7.146;2023-02-23T19:37:42;23.40;43.30
53314;DHT22;39202;51.468;7.146;2023-02-23T19:42:47;23.40;43.20
53314;DHT22;39202;51.468;7.146;2023-02-23T19:47:51;23.40;43.90
53314;DHT22;39202;51.468;7.146;2023-02-23T19:52:53;23.40;43.30
53314;DHT22;39202;51.468;7.146;2023-02-23T19:57:55;23.40;43.20
53314;DHT22;39202;51.468;7.146;2023-02-23T20:02:58;23.40;43.30
53314;DHT22;39202;51.468;7.146;2023-02-23T20:08:05;23.30;43.20
53314;DHT22;39202;51.468;7.146;2023-02-23T20:13:07;23.30;43.30
53314;DHT22;39202;51.468;7.146;2023-02-23T20:18:11;23.30;43.30
53314;DHT22;39202;51.468;7.146;2023-02-23T20:23:13;23.30;43.30
53314;DHT22;39202;51.468;7.146;2023-02-23T20:28:15;23.30;43.30
53314;DHT22;39202;51.468;7.146;2023-02-23T20:33:18;23.20;43.30
53314;DHT22;39202;51.468;7.146;2023-02-23T20:38:20;23.20;43.30
53314;DHT22;39202;51.468;7.146;2023-02-23T20:43:22;23.20;43.30
53314;DHT22;39202;51.468;7.146;2023-02-23T20:48:25;23.20;43.30
53314;DHT22;39202;51.468;7.146;2023-02-23T20:53:28;23.20;43.30
53314;DHT22;39202;51.468;7.146;2023-02-23T20:58:30;23.20;43.40
53314;DHT22;39202;51.468;7.146;2023-02-23T21:03:33;23.10;43.30
53314;DHT22;39202;51.468;7.146;2023-02-23T21:08:35;23.10;43.30
53314;DHT22;39202;51.468;7.146;2023-02-23T21:13:39;23.10;43.40
53314;DHT22;39202;51.468;7.146;2023-02-23T21:18:42;23.10;43.40
53314;DHT22;39202;51.468;7.146;2023-02-23T21:23:44;23.10;43.40
53314;DHT22;39202;51.468;7.146;2023-02-23T21:28:48;23.10;43.40
53314;DHT22;39202;51.468;7.146;2023-02-23T21:33:52;23.00;43.30
53314;DHT22;39202;51.468;7.146;2023-02-23T21:38:53;23.00;43.40
53314;DHT22;39202;51.468;7.146;2023-02-23T21:43:55;23.00;43.40
53314;DHT22;39202;51.468;7.146;2023-02-23T21:48:58;23.00;43.40
53314;DHT22;39202;51.468;7.146;2023-02-23T21:54:03;23.00;43.40
53314;DHT22;39202;51.468;7.146;2023-02-23T21:59:05;23.00;43.40
53314;DHT22;39202;51.468;7.146;2023-02-23T22:04:12;23.00;43.50
53314;DHT22;39202;51.468;7.146;2023-02-23T22:09:14;23.00;43.40
53314;DHT22;39202;51.468;7.146;2023-02-23T22:14:16;22.90;43.40
53314;DHT22;39202;51.468;7.146;2023-02-23T22:19:19;22.90;43.40
53314;DHT22;39202;51.468;7.146;2023-02-23T22:24:21;22.90;43.40
53314;DHT22;39202;51.468;7.146;2023-02-23T22:29:24;22.90;43.40
53314;DHT22;39202;51.468;7.146;2023-02-23T22:34:28;22.90;43.50
53314;DHT22;39202;51.468;7.146;2023-02-23T22:39:29;22.90;43.50
53314;DHT22;39202;51.468;7.146;2023-02-23T22:44:33;22.80;43.40
53314;DHT22;39202;51.468;7.146;2023-02-23T22:49:36;22.80;43.40
53314;DHT22;39202;51.468;7.146;2023-02-23T22:54:38;22.80;43.40
53314;DHT22;39202;51.468;7.146;2023-02-23T22:59:39;22.80;43.40
53314;DHT22;39202;51.468;7.146;2023-02-23T23:04:55;22.80;43.40
53314;DHT22;39202;51.468;7.146;2023-02-23T23:09:57;22.80;43.50
53314;DHT22;39202;51.468;7.146;2023-02-23T23:15:02;22.80;43.50
53314;DHT22;39202;51.468;7.146;2023-02-23T23:20:07;22.80;43.50
53314;DHT22;39202;51.468;7.146;2023-02-23T23:25:11;22.70;43.50
53314;DHT22;39202;51.468;7.146;2023-02-23T23:30:15;22.80;43.50
53314;DHT22;39202;51.468;7.146;2023-02-23T23:35:22;22.70;43.40
53314;DHT22;39202;51.468;7.146;2023-02-23T23:40:25;22.70;43.50
53314;DHT22;39202;51.468;7.146;2023-02-23T23:45:27;22.70;43.50
53314;DHT22;39202;51.468;7.146;2023-02-23T23:50:31;22.70;43.50
53314;DHT22;39202;51.468;7.146;2023-02-23T23:55:33;22.70;43.50
